createdAt,value
2023-01-19T00:01:59.344Z,17.30
2023-01-19T00:04:30.618Z,13.37
2023-01-19T00:07:03.079Z,18.53
2023-01-19T00:09:38.298Z,14.43
2023-01-19T00:12:09.605Z,13.73
2023-01-19T00:14:41.012Z,19.53
2023-01-19T00:17:12.458Z,14.47
2023-01-19T00:19:43.804Z,15.83
2023-01-19T00:22:15.088Z,20.27
2023-01-19T00:24:46.411Z,17.13
2023-01-19T00:27:17.674Z,17.23
2023-01-19T00:29:49.054Z,15.17
2023-01-19T00:32:20.318Z,16.37
2023-01-19T00:34:52.244Z,13.57
2023-01-19T00:37:23.529Z,17.10
2023-01-19T00:39:54.812Z,15.70
2023-01-19T00:42:41.136Z,12.00
2023-01-19T00:45:18.757Z,12.45
2023-01-19T00:47:56.863Z,11.93
2023-01-19T00:50:30.278Z,15.47
2023-01-19T00:53:02.114Z,15.07
2023-01-19T00:55:33.819Z,12.63
2023-01-19T00:58:06.441Z,12.80
2023-01-19T01:00:37.715Z,19.13
2023-01-19T01:03:09.697Z,20.07
2023-01-19T01:05:42.281Z,13.43
2023-01-19T01:08:13.610Z,16.80
2023-01-19T01:10:44.899Z,15.97
2023-01-19T01:13:20.469Z,14.00
2023-01-19T01:15:54.882Z,12.53
2023-01-19T01:18:26.347Z,14.50
2023-01-19T01:21:04.919Z,12.60
2023-01-19T01:23:36.242Z,14.37
2023-01-19T01:26:07.537Z,12.87
2023-01-19T01:28:38.841Z,17.30
2023-01-19T01:31:10.120Z,16.20
2023-01-19T01:33:41.972Z,16.57
2023-01-19T01:36:13.412Z,16.63
2023-01-19T01:38:44.940Z,14.47
2023-01-19T01:41:16.439Z,15.13
2023-01-19T01:43:58.300Z,12.87
2023-01-19T01:46:31.346Z,10.33
2023-01-19T01:49:15.667Z,12.83
2023-01-19T01:51:52.889Z,16.57
2023-01-19T01:54:32.096Z,17.67
2023-01-19T01:57:12.173Z,16.93
2023-01-19T01:59:48.384Z,12.30
2023-01-19T02:02:43.969Z,13.45
2023-01-19T02:05:22.839Z,12.07
2023-01-19T02:08:28.321Z,13.23
2023-01-19T02:11:19.596Z,11.83
2023-01-19T02:13:50.985Z,12.87
2023-01-19T02:16:22.332Z,15.03
2023-01-19T02:18:53.679Z,13.80
2023-01-19T02:21:38.417Z,14.27
2023-01-19T02:24:10.825Z,14.53
2023-01-19T02:26:46.791Z,15.77
2023-01-19T02:29:21.152Z,12.38
2023-01-19T02:31:53.852Z,12.83
2023-01-19T02:34:25.265Z,12.43
2023-01-19T02:37:01.931Z,13.57
2023-01-19T02:39:38.707Z,13.87
2023-01-19T02:42:14.186Z,12.70
2023-01-19T02:44:48.862Z,14.88
2023-01-19T02:47:20.252Z,12.40
2023-01-19T02:49:58.881Z,14.93
2023-01-19T02:52:30.780Z,11.97
2023-01-19T02:55:18.055Z,12.87
2023-01-19T02:57:49.341Z,13.00
2023-01-19T03:00:40.356Z,13.73
2023-01-19T03:03:26.959Z,12.50
2023-01-19T03:06:19.250Z,15.25
2023-01-19T03:09:02.837Z,14.90
2023-01-19T03:11:40.094Z,14.70
2023-01-19T03:14:18.091Z,15.10
2023-01-19T03:16:57.176Z,14.07
2023-01-19T03:19:50.334Z,12.70
2023-01-19T03:22:27.017Z,12.73
2023-01-19T03:25:01.001Z,14.27
2023-01-19T03:27:40.666Z,16.03
2023-01-19T03:30:19.158Z,14.17
2023-01-19T03:33:00.450Z,17.17
2023-01-19T03:35:36.637Z,18.47
2023-01-19T03:38:15.871Z,15.48
2023-01-19T03:40:47.556Z,13.67
2023-01-19T03:43:21.402Z,15.67
2023-01-19T03:45:53.143Z,14.87
2023-01-19T03:48:25.224Z,14.23
2023-01-19T03:50:56.699Z,16.83
2023-01-19T03:53:27.966Z,16.63
2023-01-19T03:55:59.420Z,15.50
2023-01-19T03:58:30.711Z,16.43
2023-01-19T04:01:04.092Z,18.73
2023-01-19T04:03:35.393Z,15.80
2023-01-19T04:06:07.573Z,14.57
2023-01-19T04:08:39.020Z,16.17
2023-01-19T04:11:10.556Z,20.47
2023-01-19T04:13:41.850Z,17.03
2023-01-19T04:16:13.450Z,16.70
2023-01-19T04:18:44.778Z,15.27
2023-01-19T04:21:16.659Z,14.50
2023-01-19T04:23:49.736Z,17.23
2023-01-19T04:26:21.055Z,21.37
2023-01-19T04:28:52.380Z,21.60
2023-01-19T04:31:23.704Z,16.53
2023-01-19T04:33:55.778Z,16.93
2023-01-19T04:36:28.284Z,21.03
2023-01-19T04:38:59.607Z,16.90
2023-01-19T04:41:31.446Z,18.23
2023-01-19T04:44:03.558Z,21.40
2023-01-19T04:46:34.965Z,16.70
2023-01-19T04:49:06.294Z,16.70
2023-01-19T04:51:37.550Z,18.30
2023-01-19T04:54:09.160Z,17.50
2023-01-19T04:56:40.924Z,19.23
2023-01-19T04:59:12.510Z,18.10
2023-01-19T05:01:43.885Z,18.93
2023-01-19T05:04:15.226Z,20.13
2023-01-19T05:06:46.493Z,19.93
2023-01-19T05:09:17.860Z,19.83
2023-01-19T05:11:49.139Z,16.83
2023-01-19T05:14:20.464Z,19.07
2023-01-19T05:16:51.833Z,18.40
2023-01-19T05:19:23.613Z,17.93
2023-01-19T05:21:54.889Z,15.57
2023-01-19T05:24:26.175Z,18.17
2023-01-19T05:26:58.208Z,16.87
2023-01-19T05:29:29.471Z,20.97
2023-01-19T05:32:01.251Z,17.40
2023-01-19T05:34:32.666Z,16.27
2023-01-19T05:37:04.029Z,18.33
2023-01-19T05:39:35.283Z,19.33
2023-01-19T05:42:06.573Z,19.10
2023-01-19T05:44:37.834Z,18.87
2023-01-19T05:47:09.097Z,19.33
2023-01-19T05:49:40.386Z,22.10
2023-01-19T05:52:11.937Z,18.33
2023-01-19T05:54:43.261Z,19.60
2023-01-19T05:57:14.762Z,18.37
2023-01-19T05:59:46.274Z,19.00
2023-01-19T06:02:17.585Z,17.80
2023-01-19T06:04:48.885Z,21.70
2023-01-19T06:07:20.139Z,22.20
2023-01-19T06:09:51.525Z,19.07
2023-01-19T06:12:23.008Z,24.13
2023-01-19T06:14:54.301Z,20.53
2023-01-19T06:17:25.698Z,18.63
2023-01-19T06:19:56.995Z,19.00
2023-01-19T06:22:28.271Z,23.57
2023-01-19T06:24:59.515Z,22.97
2023-01-19T06:27:30.785Z,21.30
2023-01-19T06:30:03.097Z,18.20
2023-01-19T06:32:34.364Z,21.40
2023-01-19T06:35:07.665Z,21.60
2023-01-19T06:37:39.784Z,23.50
2023-01-19T06:40:13.612Z,25.40
2023-01-19T06:42:45.766Z,25.20
2023-01-19T06:45:17.218Z,21.20
2023-01-19T06:47:48.530Z,17.77
2023-01-19T06:50:19.801Z,26.43
2023-01-19T06:52:51.612Z,24.10
2023-01-19T06:55:23.078Z,23.50
2023-01-19T06:57:58.627Z,22.27
2023-01-19T07:00:30.307Z,23.67
2023-01-19T07:03:02.055Z,23.20
2023-01-19T07:05:35.647Z,25.80
2023-01-19T07:08:06.922Z,33.03
2023-01-19T07:11:21.487Z,29.57
2023-01-19T07:13:30.174Z,28.47
2023-01-19T07:16:10.274Z,25.57
2023-01-19T07:18:41.819Z,30.37
2023-01-19T07:21:13.147Z,26.87
2023-01-19T07:23:44.746Z,23.57
2023-01-19T07:26:18.490Z,28.13
2023-01-19T07:28:49.901Z,23.07
2023-01-19T07:31:21.272Z,29.60
2023-01-19T07:33:52.688Z,32.03
2023-01-19T07:36:23.938Z,25.63
2023-01-19T07:38:55.193Z,29.33
2023-01-19T07:41:26.496Z,29.10
2023-01-19T07:43:57.863Z,26.27
2023-01-19T07:46:29.110Z,25.67
2023-01-19T07:49:00.442Z,21.90
2023-01-19T07:51:32.806Z,23.67
2023-01-19T07:54:04.073Z,24.77
2023-01-19T07:56:35.750Z,21.50
2023-01-19T07:59:09.545Z,23.30
2023-01-19T08:01:40.910Z,22.53
2023-01-19T08:04:12.528Z,23.83
2023-01-19T08:06:45.082Z,25.40
2023-01-19T08:09:16.410Z,26.97
2023-01-19T08:11:47.722Z,28.07
2023-01-19T08:14:18.994Z,25.93
2023-01-19T08:16:50.272Z,24.93
2023-01-19T08:19:21.657Z,28.80
2023-01-19T08:21:53.358Z,26.37
2023-01-19T08:24:29.147Z,24.90
2023-01-19T08:27:02.087Z,24.30
2023-01-19T08:29:33.725Z,25.10
2023-01-19T08:32:06.615Z,21.47
2023-01-19T08:34:37.967Z,26.97
2023-01-19T08:37:09.233Z,25.13
2023-01-19T08:39:40.507Z,26.60
2023-01-19T08:42:11.756Z,25.57
2023-01-19T08:44:57.210Z,27.27
2023-01-19T08:47:29.424Z,18.40
2023-01-19T08:50:00.710Z,26.63
2023-01-19T08:52:31.961Z,25.30
2023-01-19T08:55:03.376Z,24.13
2023-01-19T08:57:34.669Z,25.03
2023-01-19T09:00:07.853Z,20.60
2023-01-19T09:02:39.168Z,22.07
2023-01-19T09:05:10.686Z,23.60
2023-01-19T09:07:44.000Z,25.47
2023-01-19T09:10:16.633Z,24.43
2023-01-19T09:12:47.907Z,21.73
2023-01-19T09:15:19.180Z,25.47
2023-01-19T09:17:52.604Z,24.13
2023-01-19T09:20:23.995Z,23.03
2023-01-19T09:22:56.272Z,21.50
2023-01-19T09:25:27.636Z,23.93
2023-01-19T09:28:00.494Z,22.27
2023-01-19T09:30:33.109Z,20.03
2023-01-19T09:33:07.331Z,20.70
2023-01-19T09:35:39.602Z,23.93
2023-01-19T09:38:12.412Z,18.77
2023-01-19T09:40:53.047Z,22.60
2023-01-19T09:43:35.216Z,16.73
2023-01-19T09:46:19.032Z,21.17
2023-01-19T09:48:56.831Z,22.93
2023-01-19T09:51:32.680Z,20.97
2023-01-19T09:54:19.151Z,23.98
2023-01-19T09:56:52.658Z,21.95
2023-01-19T09:59:32.452Z,21.77
2023-01-19T10:02:22.523Z,26.00
2023-01-19T10:05:21.124Z,21.70
2023-01-19T10:08:22.202Z,22.67
2023-01-19T10:10:56.303Z,19.77
2023-01-19T10:13:51.829Z,18.63
2023-01-19T10:16:45.734Z,25.03
2023-01-19T10:19:33.618Z,22.23
2023-01-19T10:22:23.662Z,18.57
2023-01-19T10:24:58.880Z,18.80
2023-01-19T10:27:34.133Z,20.20
2023-01-19T10:30:07.978Z,18.27
2023-01-19T10:32:39.341Z,21.07
2023-01-19T10:35:21.717Z,23.20
2023-01-19T10:37:56.525Z,21.10
2023-01-19T10:40:46.797Z,21.87
2023-01-19T10:43:37.546Z,22.07
2023-01-19T10:46:20.450Z,19.70
2023-01-19T10:48:54.039Z,21.27
2023-01-19T10:51:25.507Z,19.20
2023-01-19T10:54:03.207Z,21.77
2023-01-19T10:56:37.115Z,15.97
2023-01-19T10:59:54.513Z,16.57
2023-01-19T11:02:31.222Z,17.40
2023-01-19T11:05:26.147Z,21.80
2023-01-19T11:07:57.778Z,19.33
2023-01-19T11:10:30.176Z,19.17
2023-01-19T11:13:07.505Z,18.63
2023-01-19T11:15:53.361Z,21.57
2023-01-19T11:18:30.120Z,23.80
2023-01-19T11:21:11.479Z,22.67
2023-01-19T11:23:51.025Z,19.70
2023-01-19T11:26:49.175Z,17.13
2023-01-19T11:29:24.017Z,17.23
2023-01-19T11:31:59.043Z,17.97
2023-01-19T11:34:33.637Z,17.37
2023-01-19T11:37:26.716Z,22.53
2023-01-19T11:40:00.370Z,20.10
2023-01-19T11:42:34.453Z,17.43
2023-01-19T11:45:15.758Z,20.13
2023-01-19T11:47:54.696Z,27.03
2023-01-19T11:50:38.669Z,17.90
2023-01-19T11:53:12.934Z,22.97
2023-01-19T11:55:53.538Z,16.57
2023-01-19T11:58:26.704Z,18.83
2023-01-19T12:01:03.773Z,26.93
2023-01-19T12:03:46.545Z,19.60
2023-01-19T12:06:30.936Z,18.23
2023-01-19T12:09:18.060Z,16.03
2023-01-19T12:12:01.659Z,18.57
2023-01-19T12:14:51.123Z,15.07
2023-01-19T12:17:50.001Z,20.30
2023-01-19T12:20:39.463Z,23.47
2023-01-19T12:23:10.682Z,17.43
2023-01-19T12:26:09.213Z,17.63
2023-01-19T12:28:44.389Z,19.33
2023-01-19T12:31:17.530Z,17.40
2023-01-19T12:33:49.586Z,18.07
2023-01-19T12:36:26.899Z,19.77
2023-01-19T12:39:26.650Z,18.83
2023-01-19T12:42:19.867Z,16.33
2023-01-19T12:45:07.304Z,19.43
2023-01-19T12:47:38.878Z,18.08
2023-01-19T12:50:19.121Z,20.70
2023-01-19T12:52:57.067Z,22.20
2023-01-19T12:55:31.366Z,19.70
2023-01-19T12:58:21.573Z,18.33
2023-01-19T13:01:14.525Z,16.20
2023-01-19T13:03:59.265Z,20.50
2023-01-19T13:06:48.912Z,16.47
2023-01-19T13:09:37.390Z,16.13
2023-01-19T13:12:14.590Z,14.57
2023-01-19T13:14:46.372Z,17.73
2023-01-19T13:17:31.485Z,16.27
2023-01-19T13:20:22.983Z,18.37
2023-01-19T13:23:18.629Z,16.63
2023-01-19T13:26:05.435Z,18.37
2023-01-19T13:31:14.098Z,13.27
2023-01-19T13:33:49.733Z,16.27
2023-01-19T13:36:29.967Z,18.35
2023-01-19T13:39:39.519Z,16.37
2023-01-19T13:42:18.206Z,17.00
2023-01-19T13:44:53.578Z,19.90
2023-01-19T13:47:45.812Z,18.20
2023-01-19T13:50:22.473Z,18.37
2023-01-19T13:52:55.581Z,19.47
2023-01-19T13:55:29.479Z,17.27
2023-01-19T13:58:01.478Z,13.43
2023-01-19T14:00:33.367Z,15.83
2023-01-19T14:03:04.661Z,16.13
2023-01-19T14:05:41.952Z,19.60
2023-01-19T14:08:15.211Z,15.30
2023-01-19T14:11:13.490Z,15.37
2023-01-19T14:13:45.120Z,14.77
2023-01-19T14:16:17.870Z,15.73
2023-01-19T14:18:59.540Z,16.07
2023-01-19T14:21:40.902Z,13.97
2023-01-19T14:24:19.748Z,17.27
2023-01-19T14:26:53.790Z,15.53
2023-01-19T14:29:32.727Z,13.23
2023-01-19T14:32:17.942Z,15.50
2023-01-19T14:35:13.337Z,14.97
2023-01-19T14:37:47.737Z,13.70
2023-01-19T14:40:21.571Z,14.57
2023-01-19T14:42:57.310Z,16.27
2023-01-19T14:45:41.244Z,17.02
2023-01-19T14:48:19.024Z,17.80
2023-01-19T14:51:03.456Z,14.80
2023-01-19T14:53:37.336Z,17.43
2023-01-19T14:56:08.810Z,14.87
2023-01-19T14:58:40.058Z,13.60
2023-01-19T15:01:11.492Z,12.87
2023-01-19T15:03:45.365Z,19.30
2023-01-19T15:06:19.210Z,14.40
2023-01-19T15:08:53.237Z,14.50
2023-01-19T15:11:32.687Z,15.27
2023-01-19T15:14:04.033Z,12.53
2023-01-19T15:16:35.893Z,9.33
2023-01-19T15:19:11.657Z,17.70
2023-01-19T15:21:46.365Z,16.25
2023-01-19T15:24:18.143Z,18.33
2023-01-19T15:26:49.645Z,15.27
2023-01-19T15:29:25.836Z,15.00
2023-01-19T15:31:57.146Z,14.50
2023-01-19T15:34:28.406Z,14.20
2023-01-19T15:36:59.871Z,12.57
2023-01-19T15:39:32.053Z,10.37
2023-01-19T15:42:03.455Z,15.07
2023-01-19T15:44:34.720Z,13.73
2023-01-19T15:47:06.048Z,18.73
2023-01-19T15:49:37.702Z,14.33
2023-01-19T15:52:09.066Z,14.13
2023-01-19T15:54:40.438Z,14.70
2023-01-19T15:57:11.693Z,16.47
2023-01-19T15:59:42.955Z,13.60
2023-01-19T16:02:14.362Z,19.17
2023-01-19T16:04:49.203Z,13.37
2023-01-19T16:07:21.064Z,17.37
2023-01-19T16:09:52.503Z,10.30
2023-01-19T16:12:23.799Z,14.37
2023-01-19T16:14:55.071Z,14.30
2023-01-19T16:17:26.439Z,10.13
2023-01-19T16:19:57.719Z,12.10
2023-01-19T16:22:29.034Z,16.00
2023-01-19T16:25:00.326Z,15.77
2023-01-19T16:27:31.795Z,18.37
2023-01-19T16:30:04.892Z,14.33
2023-01-19T16:32:36.563Z,13.53
2023-01-19T16:35:08.247Z,17.20
2023-01-19T16:37:39.671Z,13.13
2023-01-19T16:40:11.920Z,12.13
2023-01-19T16:42:43.423Z,16.53
2023-01-19T16:45:14.844Z,14.73
2023-01-19T16:47:50.384Z,13.70
2023-01-19T16:50:21.667Z,10.60
2023-01-19T16:52:56.239Z,15.07
2023-01-19T16:55:27.538Z,10.77
2023-01-19T16:57:58.807Z,11.53
2023-01-19T17:00:30.074Z,10.97
2023-01-19T17:03:01.349Z,11.20
2023-01-19T17:05:32.625Z,14.03
2023-01-19T17:08:04.062Z,8.87
2023-01-19T17:10:36.842Z,13.73
2023-01-19T17:13:08.191Z,13.00
2023-01-19T17:15:39.470Z,12.47
2023-01-19T17:18:10.839Z,8.40
2023-01-19T17:20:42.115Z,14.20
2023-01-19T17:23:13.377Z,17.67
2023-01-19T17:25:52.067Z,11.60
2023-01-19T17:28:23.849Z,8.67
2023-01-19T17:30:55.339Z,12.93
2023-01-19T17:33:26.706Z,15.57
2023-01-19T17:36:06.076Z,14.80
2023-01-19T17:38:37.529Z,15.57
2023-01-19T17:41:20.818Z,22.27
2023-01-19T17:43:52.812Z,18.87
2023-01-19T17:46:26.371Z,20.60
2023-01-19T17:49:03.170Z,20.13
2023-01-19T17:51:35.189Z,15.17
2023-01-19T17:54:06.782Z,17.40
2023-01-19T17:56:39.394Z,16.73
2023-01-19T17:59:10.669Z,16.17
2023-01-19T18:01:42.725Z,17.97
2023-01-19T18:04:14.179Z,17.60
2023-01-19T18:06:47.073Z,19.47
2023-01-19T18:09:18.416Z,18.20
2023-01-19T18:11:49.771Z,26.87
2023-01-19T18:14:21.300Z,25.93
2023-01-19T18:16:52.692Z,33.13
2023-01-19T18:19:24.102Z,27.23
2023-01-19T18:21:56.557Z,26.47
2023-01-19T18:24:28.030Z,16.43
2023-01-19T18:26:59.380Z,18.00
2023-01-19T18:29:30.891Z,16.73
2023-01-19T18:32:02.188Z,20.57
2023-01-19T18:34:34.247Z,21.07
2023-01-19T18:37:05.641Z,13.33
2023-01-19T18:39:36.916Z,18.70
2023-01-19T18:42:08.233Z,12.60
2023-01-19T18:44:39.504Z,11.47
2023-01-19T18:47:10.768Z,11.83
2023-01-19T18:49:42.035Z,18.83
2023-01-19T18:52:13.296Z,15.37
2023-01-19T18:54:44.658Z,15.57
2023-01-19T18:57:17.763Z,15.07
2023-01-19T18:59:49.124Z,14.97
2023-01-19T19:02:20.553Z,15.67
2023-01-19T19:04:51.939Z,13.57
2023-01-19T19:07:23.525Z,14.67
2023-01-19T19:09:54.882Z,13.23
2023-01-19T19:12:26.265Z,8.97
2023-01-19T19:14:57.639Z,16.23
2023-01-19T19:17:29.063Z,16.30
2023-01-19T19:20:00.436Z,17.30
2023-01-19T19:22:31.712Z,18.20
2023-01-19T19:25:03.221Z,17.77
2023-01-19T19:27:34.483Z,14.77
2023-01-19T19:30:06.357Z,12.50
2023-01-19T19:32:37.770Z,11.50
2023-01-19T19:35:11.131Z,15.70
2023-01-19T19:37:42.489Z,14.70
2023-01-19T19:40:14.355Z,16.33
2023-01-19T19:42:45.759Z,12.67
2023-01-19T19:45:17.227Z,20.10
2023-01-19T19:47:48.498Z,16.23
2023-01-19T19:50:19.909Z,13.07
2023-01-19T19:52:51.201Z,11.07
2023-01-19T19:55:22.579Z,12.33
2023-01-19T19:57:54.732Z,20.97
2023-01-19T20:00:26.080Z,12.37
2023-01-19T20:02:57.409Z,10.33
2023-01-19T20:05:28.699Z,8.63
2023-01-19T20:07:59.964Z,10.30
2023-01-19T20:10:33.588Z,6.47
2023-01-19T20:13:08.157Z,9.63
2023-01-19T20:15:40.328Z,4.77
2023-01-19T20:18:12.159Z,7.03
2023-01-19T20:20:44.791Z,9.77
2023-01-19T20:23:16.313Z,9.07
2023-01-19T20:25:47.587Z,6.93
2023-01-19T20:28:19.083Z,11.00
2023-01-19T20:30:50.433Z,13.33
2023-01-19T20:33:21.766Z,6.63
2023-01-19T20:35:53.323Z,6.83
2023-01-19T20:38:24.640Z,4.37
2023-01-19T20:40:55.927Z,8.80
2023-01-19T20:43:28.677Z,6.67
2023-01-19T20:46:00.030Z,7.77
2023-01-19T20:48:31.990Z,7.63
2023-01-19T20:51:06.529Z,8.33
2023-01-19T20:53:39.517Z,8.10
2023-01-19T20:56:13.281Z,9.70
2023-01-19T20:58:44.592Z,7.60
2023-01-19T21:01:19.327Z,6.40
2023-01-19T21:03:51.617Z,7.83
2023-01-19T21:06:23.021Z,7.03
2023-01-19T21:08:54.313Z,5.17
2023-01-19T21:11:25.692Z,7.83
2023-01-19T21:13:57.133Z,10.73
2023-01-19T21:16:31.632Z,7.63
2023-01-19T21:19:03.943Z,4.40
2023-01-19T21:21:35.244Z,8.30
2023-01-19T21:24:06.709Z,6.57
2023-01-19T21:26:38.776Z,7.93
2023-01-19T21:29:13.202Z,11.13
2023-01-19T21:31:44.623Z,9.37
2023-01-19T21:34:15.971Z,7.63
2023-01-19T21:36:47.274Z,8.50
2023-01-19T21:39:18.672Z,9.03
2023-01-19T21:41:50.048Z,12.60
2023-01-19T21:44:21.332Z,10.23
2023-01-19T21:46:52.885Z,9.60
2023-01-19T21:49:24.308Z,11.77
2023-01-19T21:51:55.552Z,8.13
2023-01-19T21:54:26.869Z,10.10
2023-01-19T21:56:58.241Z,11.30
2023-01-19T21:59:29.543Z,17.37
2023-01-19T22:02:00.922Z,12.90
2023-01-19T22:04:32.366Z,11.97
2023-01-19T22:07:03.626Z,9.33
2023-01-19T22:09:35.393Z,11.07
2023-01-19T22:12:06.685Z,10.87
2023-01-19T22:14:37.986Z,10.07
2023-01-19T22:17:09.293Z,11.40
2023-01-19T22:19:40.557Z,15.77
2023-01-19T22:22:11.832Z,14.27
2023-01-19T22:24:46.510Z,10.33
2023-01-19T22:27:18.062Z,11.57
2023-01-19T22:29:49.424Z,19.87
2023-01-19T22:32:20.698Z,15.37
2023-01-19T22:34:51.960Z,11.00
2023-01-19T22:37:23.251Z,16.70
2023-01-19T22:39:54.513Z,10.07
2023-01-19T22:42:25.790Z,11.67
2023-01-19T22:44:57.094Z,10.63
2023-01-19T22:47:28.341Z,12.57
2023-01-19T22:49:59.602Z,14.20
2023-01-19T22:52:30.858Z,10.07
2023-01-19T22:55:02.156Z,14.73
2023-01-19T22:57:35.824Z,12.53
2023-01-19T23:00:08.708Z,11.93
2023-01-19T23:02:40.064Z,15.63
2023-01-19T23:05:11.447Z,11.77
2023-01-19T23:07:42.915Z,13.37
2023-01-19T23:10:14.269Z,16.13
2023-01-19T23:12:46.547Z,20.80
2023-01-19T23:15:17.849Z,13.57
2023-01-19T23:17:52.783Z,14.60
2023-01-19T23:20:24.054Z,18.23
2023-01-19T23:22:55.427Z,17.40
2023-01-19T23:25:26.720Z,14.83
2023-01-19T23:27:57.992Z,19.63
2023-01-19T23:30:29.307Z,16.93
2023-01-19T23:33:00.569Z,20.70
2023-01-19T23:35:34.533Z,19.17
2023-01-19T23:38:05.806Z,21.77
2023-01-19T23:40:38.256Z,25.33
2023-01-19T23:43:09.590Z,24.47
2023-01-19T23:45:40.960Z,21.23
2023-01-19T23:48:12.231Z,30.37
2023-01-19T23:50:43.563Z,39.53
2023-01-19T23:53:14.859Z,35.90
2023-01-19T23:55:46.145Z,25.10
2023-01-19T23:58:17.490Z,30.67
